Station: Southern Cross Airport  

  Atmospheric Gas Attenuation - ITU Rec 676-11   ----------------- dB/100km -----------------
Date Time Temp RH % AH g/m3 Dew Point Wind Direction Speed kph Gust kph Barometer mB Rainfall Since 9am 24GHz 47GHz 76GHz 122GHz 134GHz 241GHz
08/05 09:30 15.7 56 7.49 7 32 41 1032.3 0 17.1 24.3 35.4 92.4 83.4 285.9
08/05 09:20 15.2 62 8.05 8 26 32 1032.5 0 18.3 25.3 37.8 98.8 91.1 312.7
08/05 09:10 15.2 64 8.31 8.4 26 30 1032.6 0 18.9 25.7 38.8 101.5 94.4 324.5
08/05 09:00 14.7 65 8.18 8.2 28 39 1032.5 0 18.6 25.7 38.5 100.8 93.3 320.6
08/05 08:50 14.6 69 8.63 9 30 35 1032.7 0 19.6 26.4 40.4 105.7 99.4 341.8
08/05 08:40 14.2 73 8.91 9.4 24 30 1032.7 0 20.2 27.0 41.7 109.3 103.6 356.6
08/05 08:30 13.2 78 8.96 9.5 17 24 1032.6 0 20.4 27.4 42.5 111.3 105.7 363.6
08/05 08:20 12.9 79 8.9 9.4 20 24 1032.7 0 20.3 27.4 42.4 111.0 105.2 362.1
08/05 08:10 12.7 80 8.91 9.3 17 20 1032.7 0 20.3 27.5 42.5 111.4 105.7 363.5
08/05 08:00 12.3 82 8.9 9.3 17 26 1032.5 0 20.3 27.6 42.7 111.9 106.1 364.9
08/05 07:50 12 84 8.95 9.4 15 19 1032.5 0 20.4 27.8 43.1 112.9 107.2 368.7
08/05 07:40 11.7 85 8.89 9.3 17 19 1032.4 0 20.3 27.7 43.0 112.6 106.7 367.2
08/05 07:30 11.4 86 8.83 9.1 19 24 1032.3 0 20.2 27.7 42.9 112.3 106.3 365.6
08/05 07:20 11.1 89 8.97 9.4 17 19 1032.3 0 20.5 28.1 43.6 114.4 108.7 373.9
08/05 07:10 10.7 92 9.04 9.5 15 20 1032.2 0 20.7 28.3 44.2 115.8 110.2 379.3
08/05 07:00 10.2 94 8.95 9.3 15 19 1032 0 20.5 28.3 44.0 115.4 109.7 377.2
08/05 06:50 10 93 8.74 8.9 15 17 1032 0 20.1 28.0 43.2 113.3 107.0 367.7
08/05 06:40 9.9 92 8.59 8.7 13 15 1031.9 0 19.7 27.8 42.6 111.7 105.0 360.7
08/05 06:30 10.1 92 8.7 8.9 17 24 1031.7 0 20.0 27.9 43.0 112.7 106.2 365.2
08/05 06:20 10.1 91 8.61 8.7 15 17 1031.8 0 19.8 27.7 42.6 111.7 105.0 360.7
08/05 06:10 10.3 91 8.72 8.9 19 20 1031.7 0 20.0 27.9 43.0 112.6 106.2 365.2
08/05 06:00 10.4 91 8.77 9 17 24 1031.6 0 20.1 27.9 43.1 113.0 106.8 367.2
08/05 05:50 10.5 91 8.83 9.1 19 20 1031.7 0 20.2 28.0 43.3 113.6 107.5 369.7
08/05 05:40 10.6 91 8.88 9.2 17 20 1031.6 0 20.3 28.0 43.5 114.0 108.1 371.7
08/05 05:30 10.8 91 9 9.4 17 22 1031.4 0 20.6 28.2 43.9 115.1 109.5 376.6
08/05 05:20 10.7 91 8.94 9.3 17 20 1031.4 0 20.5 28.1 43.7 114.5 108.8 374.1
08/05 05:10 10.7 91 8.94 9.3 15 19 1031.4 0 20.5 28.1 43.7 114.5 108.8 374.1
08/05 05:00 10.8 90 8.9 9.2 15 22 1031.2 0 20.4 28.0 43.5 113.9 108.0 371.6
08/05 04:50 10.7 91 8.94 9.3 17 20 1031.3 0 20.5 28.1 43.7 114.5 108.7 374.0
08/05 04:40 10.4 92 8.87 9.2 13 15 1031.3 0 20.3 28.1 43.5 114.1 108.2 372.0
08/05 04:30 10.3 92 8.81 9.1 11 15 1031.1 0 20.2 28.0 43.3 113.6 107.5 369.5
08/05 04:20 10.2 91 8.66 8.8 11 13 1031.2 0 19.9 27.8 42.8 112.0 105.5 362.6
08/05 04:10 10.5 91 8.83 9.1 11 11 1031.2 0 20.2 28.0 43.3 113.5 107.5 369.5
08/05 04:00 10.6 90 8.79 9 11 17 1031.1 0 20.1 27.9 43.1 112.9 106.8 367.1
08/05 03:50 10.9 89 8.85 9.2 13 15 1031.2 0 20.2 27.9 43.2 113.2 107.2 368.6
08/05 03:40 11.1 88 8.87 9.2 15 17 1031.2 0 20.3 27.9 43.2 113.1 107.2 368.7
08/05 03:30 11.3 87 8.88 9.2 15 20 1031.1 0 20.3 27.8 43.1 112.9 107.0 368.2
08/05 03:20 11.3 87 8.88 9.2 15 17 1031.2 0 20.3 27.8 43.1 112.9 107.0 368.2
08/05 03:10 11.2 87 8.82 9.1 15 17 1031.2 0 20.2 27.7 42.9 112.4 106.3 365.7
08/05 03:00 11.1 87 8.76 9 11 17 1031.1 0 20.0 27.7 42.7 111.9 105.6 363.2
08/05 02:50 11 87 8.71 8.9 11 13 1031.2 0 19.9 27.6 42.5 111.4 105.1 361.3
08/05 02:40 10.9 87 8.66 8.8 13 13 1031.1 0 19.8 27.6 42.4 111.0 104.5 359.3
08/05 02:30 10.9 86 8.56 8.7 11 17 1031 0 19.6 27.4 41.9 109.9 103.1 354.4
08/05 02:20 10.8 87 8.6 8.7 11 15 1031.1 0 19.7 27.5 42.2 110.5 103.8 356.8
08/05 02:10 10.7 86 8.45 8.5 11 11 1031.1 0 19.4 27.3 41.6 108.9 101.9 350.0
08/05 02:00 11 84 8.41 8.4 13 17 1031 0 19.3 27.1 41.3 108.0 100.9 346.7
08/05 01:50 11.2 84 8.52 8.6 13 15 1031 0 19.5 27.2 41.6 109.0 102.2 351.1
08/05 01:40 11.3 83 8.47 8.5 15 15 1031.1 0 19.4 27.1 41.4 108.3 101.3 348.3
08/05 01:30 11.5 83 8.57 8.7 11 17 1031.1 0 19.6 27.2 41.7 109.1 102.5 352.2
08/05 01:20 11.5 83 8.57 8.7 13 15 1031.2 0 19.6 27.2 41.7 109.2 102.5 352.2
08/05 01:10 11.2 83 8.41 8.4 11 13 1031.2 0 19.3 27.0 41.2 107.8 100.7 345.8
08/05 01:00 11 82 8.21 8.1 11 15 1031.1 0 18.9 26.8 40.4 105.8 98.2 337.1
08/05 00:50 10.9 81 8.06 7.8 11 13 1031.2 0 18.6 26.5 39.9 104.3 96.2 330.4
08/05 00:40 10.8 80 7.91 7.5 11 13 1031.1 0 18.2 26.3 39.3 102.8 94.3 323.6
08/05 00:30 10.8 79 7.81 7.3 11 15 1030.9 0 18.0 26.1 38.9 101.7 93.0 318.8
08/05 00:20 10.8 79 7.81 7.3 11 13 1031.1 0 18.0 26.2 38.9 101.7 93.0 318.8
08/05 00:10 10.5 77 7.47 6.6 9 11 1031 0 17.3 25.7 37.6 98.3 88.7 304.0
08/05 00:00 10.8 75 7.41 6.6 9 13 1030.9 0 17.2 25.5 37.2 97.3 87.6 300.0
07/05 23:50 11.1 72 7.25 6.3 9 11 1031 0 16.8 25.1 36.5 95.2 85.1 291.4
07/05 23:40 11.3 71 7.24 6.2 9 11 1031.1 0 16.8 25.1 36.3 94.9 84.8 290.3
07/05 23:30 11.7 70 7.32 6.4 11 13 1031 0 16.9 25.1 36.5 95.2 85.4 292.5
07/05 23:20 11.8 69 7.26 6.3 11 13 1031.1 0 16.8 25.0 36.2 94.5 84.5 289.4
07/05 23:10 12.1 68 7.29 6.4 9 11 1031.2 0 16.9 24.9 36.2 94.5 84.6 289.7
07/05 23:00 12.3 67 7.28 6.4 11 15 1031.1 0 16.8 24.9 36.0 94.1 84.2 288.5
07/05 22:50 12.3 66 7.17 6.1 11 13 1031.2 0 16.6 24.7 35.6 93.0 82.8 283.5
07/05 22:40 12.5 65 7.15 6.1 9 9 1031.2 0 16.5 24.6 35.4 92.5 82.3 281.9
07/05 22:30 12.8 64 7.17 6.2 11 15 1031.1 0 16.6 24.6 35.4 92.4 82.3 281.7
07/05 22:20 13.2 63 7.23 6.3 13 17 1031.2 0 16.7 24.5 35.4 92.5 82.6 283.0
07/05 22:10 13.5 62 7.25 6.4 13 13 1031.3 0 16.7 24.5 35.4 92.4 82.6 282.8
07/05 22:00 13.6 61 7.18 6.2 15 20 1031.2 0 16.6 24.4 35.1 91.6 81.6 279.3
07/05 21:50 13.7 61 7.22 6.3 19 22 1031.3 0 16.6 24.4 35.2 91.9 82.0 280.8
07/05 21:40 13.8 61 7.27 6.4 13 17 1031.3 0 16.7 24.5 35.3 92.3 82.5 282.7
07/05 21:30 13.8 60 7.15 6.2 15 20 1031.1 0 16.5 24.3 34.9 91.0 81.0 277.3
07/05 21:20 13.9 60 7.19 6.3 11 15 1031.1 0 16.6 24.3 35.0 91.3 81.4 278.7
07/05 21:10 14 60 7.24 6.4 13 17 1031.1 0 16.7 24.3 35.1 91.7 81.9 280.6
07/05 21:00 14.2 59 7.2 6.3 15 24 1030.9 0 16.6 24.2 34.9 91.1 81.2 278.1
07/05 20:50 14.3 59 7.25 6.4 11 13 1030.8 0 16.7 24.3 35.0 91.4 81.7 279.9
07/05 20:40 14.5 58 7.21 6.3 13 15 1030.7 0 16.6 24.1 34.8 90.8 81.0 277.4
07/05 20:30 14.8 57 7.22 6.4 17 24 1030.7 0 16.6 24.1 34.7 90.6 80.8 276.8
07/05 20:20 15.1 56 7.22 6.4 19 22 1030.5 0 16.6 24.0 34.6 90.2 80.5 275.7
07/05 20:10 15 56 7.18 6.3 15 19 1030.5 0 16.5 24.0 34.4 89.9 80.1 274.3
07/05 20:00 15.3 55 7.18 6.3 19 28 1030.4 0 16.5 23.9 34.3 89.6 79.8 273.3
07/05 19:50 15.3 56 7.31 6.6 20 28 1030.4 0 16.8 24.1 34.8 90.9 81.4 279.0
07/05 19:40 15.2 55 7.14 6.2 15 19 1030.4 0 16.4 23.8 34.2 89.3 79.4 271.9
07/05 19:30 15.4 55 7.23 6.4 15 24 1030.2 0 16.6 23.9 34.5 89.9 80.3 275.1
07/05 19:20 15.4 54 7.09 6.1 15 19 1030.2 0 16.3 23.7 33.9 88.5 78.6 269.0
07/05 19:10 15.7 53 7.09 6.2 15 19 1030.1 0 16.3 23.6 33.8 88.2 78.3 268.0
07/05 19:00 15.8 52 7 6 17 24 1029.9 0 16.1 23.5 33.4 87.2 77.0 263.7
07/05 18:50 15.9 52 7.04 6.1 15 19 1030 0 16.2 23.5 33.5 87.5 77.4 265.1
07/05 18:40 16.2 51 7.03 6.1 15 19 1029.9 0 16.1 23.4 33.4 87.0 77.0 263.7
07/05 18:30 16.5 50 7.02 6.1 13 20 1029.8 0 16.1 23.3 33.2 86.6 76.6 262.3
07/05 18:20 16.8 48 6.86 5.7 15 19 1029.8 0 15.8 23.0 32.5 84.7 74.4 254.5
07/05 18:10 16.8 48 6.86 5.7 11 13 1029.6 0 15.8 23.0 32.5 84.7 74.4 254.5
07/05 18:00 17.1 48 6.99 6 11 15 1029.4 0 16.0 23.1 32.8 85.6 75.6 259.0
07/05 17:50 17.1 48 6.99 6 11 11 1029.4 0 16.0 23.1 32.8 85.6 75.6 259.0
07/05 17:40 17.5 46 6.86 5.8 13 15 1029.3 0 15.7 22.8 32.2 84.0 73.7 252.2
07/05 17:30 18.1 45 6.95 6 15 24 1029.2 0 15.9 22.8 32.3 84.2 74.2 254.1
07/05 17:20 18.3 44 6.88 5.8 13 19 1029.2 0 15.7 22.6 31.9 83.3 73.2 250.6
07/05 17:10 18.8 42 6.76 5.6 17 22 1029.2 0 15.5 22.3 31.3 81.7 71.3 244.1
07/05 17:00 19 42 6.84 5.8 19 26 1029.1 0 15.6 22.4 31.5 82.2 72.1 246.8

Last Refresh: 08-May-2026 11:05:15

Bureau of Meteorology